createdAt,value
2019-05-01T00:01:42.859Z,33.10
2019-05-01T00:04:53.637Z,34.17
2019-05-01T00:07:42.400Z,31.30
2019-05-01T00:10:31.822Z,33.63
2019-05-01T00:13:21.667Z,33.30
2019-05-01T00:16:10.567Z,35.07
2019-05-01T00:19:00.029Z,33.67
2019-05-01T00:21:48.990Z,33.20
2019-05-01T00:24:37.611Z,33.63
2019-05-01T00:27:27.124Z,34.30
2019-05-01T00:30:29.265Z,34.20
2019-05-01T00:33:09.932Z,34.63
2019-05-01T00:35:58.867Z,34.27
2019-05-01T00:38:47.722Z,34.57
2019-05-01T00:41:37.010Z,33.37
2019-05-01T00:44:07.472Z,33.60
2019-05-01T00:46:56.673Z,32.47
2019-05-01T00:49:45.441Z,33.97
2019-05-01T00:52:34.807Z,32.57
2019-05-01T00:55:44.835Z,33.90
2019-05-01T00:58:52.060Z,31.90
2019-05-01T01:01:59.186Z,36.13
2019-05-01T01:04:48.674Z,35.03
2019-05-01T01:07:38.331Z,33.47
2019-05-01T01:10:28.532Z,35.00
2019-05-01T01:13:17.653Z,34.03
2019-05-01T01:16:06.685Z,36.00
2019-05-01T01:18:55.932Z,34.13
2019-05-01T01:21:44.424Z,34.23
2019-05-01T01:24:34.047Z,33.27
2019-05-01T01:27:24.056Z,36.97
2019-05-01T01:30:13.628Z,35.47
2019-05-01T01:33:03.286Z,36.40
2019-05-01T01:35:52.757Z,37.03
2019-05-01T01:38:41.696Z,35.10
2019-05-01T01:41:30.868Z,37.20
2019-05-01T01:44:50.946Z,36.20
2019-05-01T01:47:59.017Z,38.00
2019-05-01T01:50:48.569Z,36.60
2019-05-01T01:53:37.994Z,36.70
2019-05-01T01:56:27.689Z,34.80
2019-05-01T01:59:17.258Z,34.10
2019-05-01T02:02:20.109Z,34.50
2019-05-01T02:05:21.278Z,34.80
2019-05-01T02:08:10.578Z,34.90
2019-05-01T02:10:59.830Z,37.03
2019-05-01T02:13:49.634Z,34.03
2019-05-01T02:16:38.846Z,35.43
2019-05-01T02:19:27.741Z,34.20
2019-05-01T02:22:17.457Z,35.03
2019-05-01T02:25:08.891Z,32.73
2019-05-01T02:28:32.373Z,35.47
2019-05-01T02:31:37.997Z,32.50
2019-05-01T02:34:09.711Z,32.03
2019-05-01T02:37:02.198Z,35.50
2019-05-01T02:39:52.196Z,33.90
2019-05-01T02:42:42.858Z,38.40
2019-05-01T02:45:33.552Z,38.30
2019-05-01T02:48:26.242Z,40.77
2019-05-01T02:51:15.659Z,40.40
2019-05-01T02:54:05.667Z,40.90
2019-05-01T02:56:59.187Z,39.67
2019-05-01T02:59:51.927Z,39.40
2019-05-01T03:02:40.880Z,39.87
2019-05-01T03:05:30.624Z,40.30
2019-05-01T03:08:19.714Z,39.57
2019-05-01T03:11:08.648Z,41.73
2019-05-01T03:13:58.550Z,38.83
2019-05-01T03:16:49.646Z,39.63
2019-05-01T03:20:07.827Z,41.80
2019-05-01T03:23:14.449Z,38.47
2019-05-01T03:26:03.871Z,39.83
2019-05-01T03:28:53.455Z,39.93
2019-05-01T03:31:43.001Z,39.17
2019-05-01T03:34:32.913Z,39.33
2019-05-01T03:37:22.382Z,39.53
2019-05-01T03:40:13.385Z,40.87
2019-05-01T03:43:02.737Z,42.27
2019-05-01T03:45:53.254Z,41.60
2019-05-01T03:48:43.391Z,42.30
2019-05-01T03:51:33.242Z,43.40
2019-05-01T03:54:22.414Z,42.70
2019-05-01T03:57:12.770Z,43.77
2019-05-01T04:00:04.601Z,47.40
2019-05-01T04:03:11.109Z,49.57
2019-05-01T04:06:01.028Z,49.07
2019-05-01T04:08:51.059Z,46.63
2019-05-01T04:11:41.149Z,46.57
2019-05-01T04:14:31.604Z,50.00
2019-05-01T04:17:27.835Z,50.03
2019-05-01T04:20:17.262Z,49.30
2019-05-01T04:23:06.765Z,49.07
2019-05-01T04:25:56.066Z,48.37
2019-05-01T04:29:00.296Z,49.87
2019-05-01T04:31:56.443Z,49.13
2019-05-01T04:34:54.394Z,48.77
2019-05-01T04:37:44.337Z,47.67
2019-05-01T04:40:34.214Z,45.83
2019-05-01T04:43:23.961Z,49.10
2019-05-01T04:46:13.283Z,49.87
2019-05-01T04:49:02.924Z,47.70
2019-05-01T04:51:52.398Z,47.17
2019-05-01T04:54:42.165Z,48.83
2019-05-01T04:57:31.353Z,53.37
2019-05-01T05:00:20.660Z,52.87
2019-05-01T05:03:14.487Z,52.07
2019-05-01T05:06:04.238Z,54.57
2019-05-01T05:08:53.633Z,52.00
2019-05-01T05:11:50.700Z,53.20
2019-05-01T05:14:42.143Z,51.20
2019-05-01T05:17:31.356Z,51.30
2019-05-01T05:20:21.099Z,52.47
2019-05-01T05:23:10.154Z,53.00
2019-05-01T05:25:59.349Z,53.17
2019-05-01T05:28:51.106Z,56.60
2019-05-01T05:31:42.453Z,55.10
2019-05-01T05:34:33.112Z,58.03
2019-05-01T05:37:28.310Z,56.93
2019-05-01T05:40:18.824Z,52.73
2019-05-01T05:43:09.853Z,53.80
2019-05-01T05:45:59.614Z,52.43
2019-05-01T05:48:49.130Z,53.47
2019-05-01T05:51:50.397Z,51.97
2019-05-01T05:55:08.588Z,53.47
2019-05-01T05:58:03.405Z,49.30
2019-05-01T06:01:14.117Z,49.90
2019-05-01T06:04:10.310Z,50.67
2019-05-01T06:07:00.474Z,46.30
2019-05-01T06:09:58.505Z,48.07
2019-05-01T06:12:51.847Z,50.13
2019-05-01T06:16:12.330Z,47.80
2019-05-01T06:19:27.317Z,49.03
2019-05-01T06:22:45.145Z,51.87
2019-05-01T06:25:35.208Z,53.60
2019-05-01T06:28:26.563Z,50.73
2019-05-01T06:31:23.203Z,52.37
2019-05-01T06:34:08.258Z,51.00
2019-05-01T06:36:57.483Z,52.37
2019-05-01T06:39:47.862Z,55.03
2019-05-01T06:42:38.634Z,54.67
2019-05-01T06:45:29.388Z,53.10
2019-05-01T06:48:19.746Z,54.87
2019-05-01T06:51:27.195Z,53.17
2019-05-01T06:54:17.739Z,52.50
2019-05-01T06:57:07.300Z,54.53
2019-05-01T06:59:58.331Z,54.00
2019-05-01T07:02:49.730Z,54.43
2019-05-01T07:05:39.012Z,56.53
2019-05-01T07:08:29.600Z,56.10
2019-05-01T07:11:00.974Z,55.23
2019-05-01T07:13:55.578Z,54.77
2019-05-01T07:16:44.291Z,56.93
2019-05-01T07:19:51.602Z,55.50
2019-05-01T07:22:42.213Z,54.00
2019-05-01T07:25:34.931Z,58.20
2019-05-01T07:28:23.946Z,58.97
2019-05-01T07:31:14.924Z,59.90
2019-05-01T07:34:16.085Z,58.00
2019-05-01T07:36:55.241Z,62.90
2019-05-01T07:39:49.865Z,63.30
2019-05-01T07:42:38.904Z,62.50
2019-05-01T07:45:48.510Z,65.80
2019-05-01T07:48:41.410Z,64.53
2019-05-01T07:51:31.498Z,69.03
2019-05-01T07:54:21.805Z,71.50
2019-05-01T07:57:11.446Z,67.30
2019-05-01T08:00:03.532Z,68.50
2019-05-01T08:02:52.303Z,68.67
2019-05-01T08:05:45.495Z,72.30
2019-05-01T08:08:31.985Z,73.37
2019-05-01T08:11:21.545Z,76.13
2019-05-01T08:14:12.063Z,67.20
2019-05-01T08:17:01.081Z,60.50
2019-05-01T08:20:09.902Z,66.27
2019-05-01T08:23:00.785Z,62.00
2019-05-01T08:25:49.278Z,60.73
2019-05-01T08:28:56.035Z,68.50
2019-05-01T08:32:03.387Z,66.90
2019-05-01T08:34:55.649Z,62.47
2019-05-01T08:37:44.151Z,63.27
2019-05-01T08:40:33.869Z,64.30
2019-05-01T08:43:23.361Z,66.23
2019-05-01T08:46:37.383Z,69.53
2019-05-01T08:49:36.422Z,66.87
2019-05-01T08:52:25.919Z,63.67
2019-05-01T08:55:17.043Z,64.50
2019-05-01T08:58:08.803Z,65.97
2019-05-01T09:00:57.638Z,70.47
2019-05-01T09:03:49.814Z,67.13
2019-05-01T09:06:39.327Z,65.73
2019-05-01T09:09:28.951Z,69.97
2019-05-01T09:12:18.409Z,65.23
2019-05-01T09:15:12.659Z,67.93
2019-05-01T09:17:59.435Z,68.50
2019-05-01T09:20:50.691Z,68.83
2019-05-01T09:23:40.101Z,63.47
2019-05-01T09:26:45.375Z,71.90
2019-05-01T09:29:46.808Z,68.10
2019-05-01T09:32:34.934Z,68.77
2019-05-01T09:35:24.481Z,69.93
2019-05-01T09:38:14.090Z,69.50
2019-05-01T09:41:03.821Z,67.90
2019-05-01T09:43:53.239Z,70.33
2019-05-01T09:46:43.011Z,68.77
2019-05-01T09:49:32.250Z,70.00
2019-05-01T09:52:31.778Z,65.97
2019-05-01T09:55:40.032Z,64.80
2019-05-01T09:58:29.400Z,64.13
2019-05-01T10:01:18.637Z,68.87
2019-05-01T10:04:08.218Z,67.50
2019-05-01T10:06:57.959Z,65.33
2019-05-01T10:09:51.594Z,63.53
2019-05-01T10:12:41.930Z,62.90
2019-05-01T10:15:28.261Z,63.90
2019-05-01T10:18:17.733Z,68.83
2019-05-01T10:21:08.589Z,65.93
2019-05-01T10:23:57.890Z,69.27
2019-05-01T10:26:49.113Z,68.70
2019-05-01T10:30:01.564Z,65.80
2019-05-01T10:32:59.684Z,65.77
2019-05-01T10:36:17.869Z,71.23
2019-05-01T10:39:05.109Z,66.63
2019-05-01T10:41:54.548Z,66.40
2019-05-01T10:44:25.030Z,71.13
2019-05-01T10:47:14.692Z,68.83
2019-05-01T10:50:04.463Z,71.47
2019-05-01T10:52:54.284Z,71.77
2019-05-01T10:55:44.363Z,70.77
2019-05-01T10:58:33.663Z,70.23
2019-05-01T11:01:39.712Z,67.53
2019-05-01T11:04:28.888Z,63.93
2019-05-01T11:07:18.621Z,65.07
2019-05-01T11:10:08.813Z,68.13
2019-05-01T11:12:57.965Z,69.67
2019-05-01T11:15:47.350Z,67.77
2019-05-01T11:18:36.749Z,69.17
2019-05-01T11:21:26.147Z,64.10
2019-05-01T11:24:15.358Z,68.30
2019-05-01T11:27:05.210Z,64.93
2019-05-01T11:29:54.733Z,65.10
2019-05-01T11:33:12.071Z,61.80
2019-05-01T11:36:22.838Z,59.53
2019-05-01T11:39:24.015Z,59.20
2019-05-01T11:42:14.677Z,58.47
2019-05-01T11:45:04.787Z,55.00
2019-05-01T11:47:54.558Z,54.80
2019-05-01T11:50:43.708Z,57.77
2019-05-01T11:53:33.992Z,57.50
2019-05-01T11:56:23.597Z,55.90
2019-05-01T11:59:13.168Z,56.27
2019-05-01T12:02:02.518Z,56.43
2019-05-01T12:04:52.931Z,55.30
2019-05-01T12:07:42.511Z,54.07
2019-05-01T12:10:32.197Z,56.40
2019-05-01T12:13:21.550Z,54.37
2019-05-01T12:16:01.725Z,54.03
2019-05-01T12:18:51.379Z,56.30
2019-05-01T12:21:41.593Z,49.67
2019-05-01T12:24:31.025Z,52.40
2019-05-01T12:27:20.806Z,49.30
2019-05-01T12:30:11.853Z,47.87
2019-05-01T12:33:00.860Z,47.17
2019-05-01T12:35:52.145Z,48.83
2019-05-01T12:38:41.159Z,45.33
2019-05-01T12:41:39.011Z,42.80
2019-05-01T12:44:27.622Z,43.70
2019-05-01T12:47:34.063Z,42.37
2019-05-01T12:50:05.117Z,45.30
2019-05-01T12:53:16.493Z,41.77
2019-05-01T12:56:33.949Z,39.43
2019-05-01T12:59:23.158Z,39.63
2019-05-01T13:02:12.785Z,39.07
2019-05-01T13:05:02.359Z,38.80
2019-05-01T13:07:52.555Z,39.80
2019-05-01T13:10:41.365Z,37.10
2019-05-01T13:13:31.356Z,35.97
2019-05-01T13:16:21.364Z,37.43
2019-05-01T13:19:10.560Z,39.80
2019-05-01T13:22:00.124Z,35.60
2019-05-01T13:24:52.740Z,36.53
2019-05-01T13:27:49.055Z,38.67
2019-05-01T13:30:54.598Z,37.20
2019-05-01T13:33:43.924Z,37.23
2019-05-01T13:36:33.292Z,35.93
2019-05-01T13:39:23.010Z,38.87
2019-05-01T13:42:12.346Z,40.20
2019-05-01T13:45:01.606Z,36.70
2019-05-01T13:47:50.626Z,36.87
2019-05-01T13:50:40.117Z,38.00
2019-05-01T13:53:29.356Z,36.60
2019-05-01T13:56:18.983Z,38.17
2019-05-01T13:59:10.130Z,37.73
2019-05-01T14:01:59.793Z,41.37
2019-05-01T14:04:49.186Z,42.27
2019-05-01T14:07:39.191Z,41.67
2019-05-01T14:10:28.676Z,41.33
2019-05-01T14:13:17.672Z,42.50
2019-05-01T14:16:07.678Z,43.87
2019-05-01T14:18:57.037Z,43.90
2019-05-01T14:22:05.382Z,44.07
2019-05-01T14:24:57.279Z,41.50
2019-05-01T14:27:47.451Z,42.27
2019-05-01T14:30:37.067Z,40.57
2019-05-01T14:33:26.422Z,41.13
2019-05-01T14:36:16.161Z,41.10
2019-05-01T14:39:06.988Z,41.30
2019-05-01T14:41:56.764Z,41.87
2019-05-01T14:44:46.434Z,41.53
2019-05-01T14:47:35.954Z,43.23
2019-05-01T14:50:24.907Z,38.87
2019-05-01T14:53:13.868Z,42.87
2019-05-01T14:56:02.541Z,37.33
2019-05-01T14:58:51.909Z,40.97
2019-05-01T15:01:41.340Z,41.30
2019-05-01T15:04:30.909Z,41.37
2019-05-01T15:07:20.206Z,43.90
2019-05-01T15:10:10.388Z,39.40
2019-05-01T15:13:01.585Z,41.40
2019-05-01T15:15:56.884Z,41.30
2019-05-01T15:18:57.722Z,44.07
2019-05-01T15:21:47.210Z,43.10
2019-05-01T15:24:36.755Z,43.33
2019-05-01T15:27:26.368Z,43.80
2019-05-01T15:30:18.510Z,42.87
2019-05-01T15:33:08.246Z,42.07
2019-05-01T15:35:38.791Z,41.20
2019-05-01T15:38:28.139Z,41.03
2019-05-01T15:41:34.084Z,41.73
2019-05-01T15:44:26.076Z,42.50
2019-05-01T15:47:15.897Z,42.47
2019-05-01T15:50:06.337Z,42.10
2019-05-01T15:52:55.509Z,43.47
2019-05-01T15:55:46.562Z,43.97
2019-05-01T15:58:35.486Z,44.60
2019-05-01T16:01:25.642Z,42.90
2019-05-01T16:04:14.899Z,42.30
2019-05-01T16:07:04.433Z,41.13
2019-05-01T16:09:53.459Z,40.13
2019-05-01T16:12:57.260Z,41.37
2019-05-01T16:15:46.899Z,42.97
2019-05-01T16:18:36.752Z,44.67
2019-05-01T16:21:07.373Z,43.53
2019-05-01T16:23:57.026Z,42.60
2019-05-01T16:26:46.658Z,43.63
2019-05-01T16:29:36.273Z,44.10
2019-05-01T16:32:25.912Z,40.83
2019-05-01T16:35:15.562Z,42.30
2019-05-01T16:38:06.676Z,42.17
2019-05-01T16:41:03.847Z,43.53
2019-05-01T16:43:53.016Z,44.13
2019-05-01T16:46:42.301Z,45.97
2019-05-01T16:49:31.727Z,44.33
2019-05-01T16:52:25.113Z,46.03
2019-05-01T16:55:15.037Z,46.50
2019-05-01T16:58:05.673Z,44.70
2019-05-01T17:01:04.696Z,44.30
2019-05-01T17:04:01.972Z,46.43
2019-05-01T17:07:08.447Z,43.43
2019-05-01T17:10:14.252Z,42.87
2019-05-01T17:13:04.890Z,44.97
2019-05-01T17:15:54.538Z,45.10
2019-05-01T17:18:43.927Z,46.00
2019-05-01T17:21:14.123Z,46.43
2019-05-01T17:24:03.518Z,43.17
2019-05-01T17:26:52.890Z,42.60
2019-05-01T17:29:42.145Z,42.03
2019-05-01T17:32:31.438Z,43.07
2019-05-01T17:35:06.510Z,44.83
2019-05-01T17:37:52.718Z,46.47
2019-05-01T17:40:22.954Z,44.53
2019-05-01T17:43:13.412Z,42.60
2019-05-01T17:46:05.800Z,44.87
2019-05-01T17:48:54.550Z,41.63
2019-05-01T17:51:46.431Z,43.63
2019-05-01T17:54:34.148Z,44.53
2019-05-01T17:57:23.731Z,44.43
2019-05-01T18:00:30.893Z,45.50
2019-05-01T18:03:38.654Z,43.50
2019-05-01T18:06:34.442Z,45.63
2019-05-01T18:09:23.805Z,45.90
2019-05-01T18:12:13.177Z,45.70
2019-05-01T18:15:03.014Z,42.50
2019-05-01T18:17:52.520Z,45.90
2019-05-01T18:20:42.343Z,45.85
2019-05-01T18:23:49.506Z,48.07
2019-05-01T18:26:56.400Z,44.97
2019-05-01T18:29:51.629Z,42.90
2019-05-01T18:32:46.889Z,43.40
2019-05-01T18:35:33.536Z,44.60
2019-05-01T18:38:34.922Z,44.77
2019-05-01T18:41:32.374Z,48.80
2019-05-01T18:44:22.319Z,45.20
2019-05-01T18:47:11.994Z,46.20
2019-05-01T18:50:01.533Z,48.90
2019-05-01T18:52:50.989Z,46.17
2019-05-01T18:55:40.200Z,48.17
2019-05-01T18:58:30.140Z,48.27
2019-05-01T19:01:03.999Z,48.13
2019-05-01T19:03:51.871Z,49.07
2019-05-01T19:06:41.761Z,47.37
2019-05-01T19:09:30.478Z,47.40
2019-05-01T19:12:20.868Z,47.23
2019-05-01T19:15:11.342Z,47.00
2019-05-01T19:18:00.232Z,47.90
2019-05-01T19:20:43.970Z,49.00
2019-05-01T19:23:33.612Z,46.37
2019-05-01T19:26:23.730Z,47.80
2019-05-01T19:29:13.467Z,48.07
2019-05-01T19:32:03.150Z,49.10
2019-05-01T19:34:53.281Z,46.67
2019-05-01T19:37:43.311Z,47.03
2019-05-01T19:40:33.739Z,49.60
2019-05-01T19:43:23.534Z,47.67
2019-05-01T19:46:06.244Z,49.70
2019-05-01T19:48:37.345Z,48.37
2019-05-01T19:51:14.876Z,52.47
2019-05-01T19:53:46.556Z,50.67
2019-05-01T19:56:38.832Z,53.47
2019-05-01T19:59:28.985Z,49.33
2019-05-01T20:02:22.155Z,51.20
2019-05-01T20:05:11.165Z,52.23
2019-05-01T20:08:00.145Z,50.83
2019-05-01T20:10:50.000Z,50.77
2019-05-01T20:13:39.869Z,49.07
2019-05-01T20:16:29.806Z,48.30
2019-05-01T20:19:19.023Z,49.10
2019-05-01T20:22:08.292Z,51.03
2019-05-01T20:24:57.838Z,53.17
2019-05-01T20:27:52.624Z,51.23
2019-05-01T20:30:19.315Z,51.33
2019-05-01T20:33:08.561Z,50.03
2019-05-01T20:35:54.085Z,49.07
2019-05-01T20:38:43.392Z,50.73
2019-05-01T20:41:30.270Z,51.53
2019-05-01T20:44:24.025Z,49.37
2019-05-01T20:47:10.361Z,51.50
2019-05-01T20:50:01.034Z,50.13
2019-05-01T20:52:50.729Z,48.90
2019-05-01T20:55:41.261Z,50.60
2019-05-01T20:58:30.463Z,47.53
2019-05-01T21:01:24.336Z,50.43
2019-05-01T21:04:48.597Z,50.70
2019-05-01T21:07:56.664Z,47.07
2019-05-01T21:10:51.113Z,49.27
2019-05-01T21:13:41.342Z,49.10
2019-05-01T21:16:32.998Z,47.50
2019-05-01T21:19:23.220Z,48.10
2019-05-01T21:22:14.295Z,47.23
2019-05-01T21:25:04.650Z,48.10
2019-05-01T21:27:54.175Z,48.43
2019-05-01T21:30:47.356Z,46.80
2019-05-01T21:33:34.759Z,50.27
2019-05-01T21:36:25.903Z,48.87
2019-05-01T21:39:17.401Z,49.23
2019-05-01T21:42:11.745Z,50.83
2019-05-01T21:44:57.082Z,50.87
2019-05-01T21:47:46.351Z,49.07
2019-05-01T21:50:36.339Z,50.47
2019-05-01T21:53:25.713Z,47.57
2019-05-01T21:55:56.327Z,49.73
2019-05-01T21:58:45.792Z,49.63
2019-05-01T22:01:36.428Z,48.30
2019-05-01T22:04:27.997Z,48.30
2019-05-01T22:07:16.283Z,48.80
2019-05-01T22:10:06.343Z,50.27
2019-05-01T22:12:55.543Z,50.00
2019-05-01T22:15:48.976Z,48.70
2019-05-01T22:18:47.617Z,47.37
2019-05-01T22:21:49.048Z,51.53
2019-05-01T22:25:08.485Z,50.50
2019-05-01T22:28:03.498Z,46.33
2019-05-01T22:31:11.649Z,46.57
2019-05-01T22:34:08.462Z,48.60
2019-05-01T22:36:58.450Z,48.17
2019-05-01T22:39:51.507Z,48.83
2019-05-01T22:42:40.149Z,47.83
2019-05-01T22:45:30.456Z,49.57
2019-05-01T22:48:19.593Z,48.87
2019-05-01T22:51:20.251Z,49.93
2019-05-01T22:54:09.826Z,50.60
2019-05-01T22:56:59.321Z,49.80
2019-05-01T22:59:48.011Z,49.13
2019-05-01T23:02:40.459Z,49.10
2019-05-01T23:05:29.830Z,48.30
2019-05-01T23:08:18.819Z,50.97
2019-05-01T23:11:19.161Z,50.33
2019-05-01T23:13:59.217Z,49.97
2019-05-01T23:16:58.558Z,48.30
2019-05-01T23:19:47.102Z,48.10
2019-05-01T23:22:36.291Z,52.50
2019-05-01T23:25:25.690Z,51.47
2019-05-01T23:28:15.156Z,51.30
2019-05-01T23:31:04.613Z,52.30
2019-05-01T23:33:53.821Z,52.27
2019-05-01T23:36:43.284Z,51.53
2019-05-01T23:39:39.604Z,50.37
2019-05-01T23:42:23.288Z,54.13
2019-05-01T23:45:12.520Z,52.80
2019-05-01T23:48:02.158Z,48.03
2019-05-01T23:50:51.188Z,52.53
2019-05-01T23:53:44.292Z,51.50
2019-05-01T23:56:12.230Z,52.20
2019-05-01T23:59:01.493Z,50.83
